createdAt,value
2017-03-30T00:00:58.693Z,0
2017-03-30T00:02:07.443Z,0
2017-03-30T00:03:16.206Z,0
2017-03-30T00:04:25.271Z,0
2017-03-30T00:05:34.033Z,0
2017-03-30T00:06:42.796Z,0
2017-03-30T00:07:51.499Z,0
2017-03-30T00:09:00.196Z,0
2017-03-30T00:10:09.246Z,0
2017-03-30T00:11:18.625Z,0
2017-03-30T00:12:27.721Z,0
2017-03-30T00:13:36.484Z,0
2017-03-30T00:14:45.566Z,0
2017-03-30T00:15:54.274Z,0
2017-03-30T00:17:03.939Z,0
2017-03-30T00:18:12.713Z,0
2017-03-30T00:19:21.474Z,0
2017-03-30T00:20:30.235Z,0
2017-03-30T00:21:40.258Z,0
2017-03-30T00:22:49.023Z,0
2017-03-30T00:23:57.730Z,0
2017-03-30T00:25:06.783Z,0
2017-03-30T00:26:16.151Z,0
2017-03-30T00:27:25.522Z,0
2017-03-30T00:28:34.234Z,0
2017-03-30T00:29:43.283Z,0
2017-03-30T00:30:52.650Z,0
2017-03-30T00:32:01.669Z,0
2017-03-30T00:33:10.966Z,0
2017-03-30T00:34:19.707Z,0
2017-03-30T00:35:28.465Z,0
2017-03-30T00:36:37.228Z,0
2017-03-30T00:37:45.948Z,0
2017-03-30T00:38:54.698Z,0
2017-03-30T00:40:03.766Z,0
2017-03-30T00:41:12.528Z,0
2017-03-30T00:42:21.243Z,0
2017-03-30T00:43:29.938Z,0
2017-03-30T00:44:39.293Z,0
2017-03-30T00:45:48.358Z,0
2017-03-30T00:46:57.139Z,0
2017-03-30T00:48:05.906Z,0
2017-03-30T00:49:14.985Z,0
2017-03-30T00:50:24.048Z,0
2017-03-30T00:51:33.114Z,0
2017-03-30T00:52:41.875Z,0
2017-03-30T00:53:50.945Z,0
2017-03-30T00:54:59.906Z,0
2017-03-30T00:56:08.981Z,0
2017-03-30T00:57:17.746Z,0
2017-03-30T00:58:26.502Z,0
2017-03-30T00:59:35.209Z,0
2017-03-30T01:00:44.259Z,0
2017-03-30T01:01:53.025Z,0
2017-03-30T01:03:01.793Z,0
2017-03-30T01:04:10.555Z,0
2017-03-30T01:05:19.321Z,0
2017-03-30T01:06:28.283Z,0
2017-03-30T01:07:37.046Z,0
2017-03-30T01:08:45.804Z,0
2017-03-30T01:09:54.571Z,0
2017-03-30T01:11:03.332Z,0
2017-03-30T01:12:12.408Z,0
2017-03-30T01:13:21.167Z,0
2017-03-30T01:14:29.877Z,0
2017-03-30T01:15:38.630Z,0
2017-03-30T01:16:48.012Z,0
2017-03-30T01:17:56.717Z,0
2017-03-30T01:19:05.467Z,0
2017-03-30T01:20:14.225Z,0
2017-03-30T01:21:23.294Z,0
2017-03-30T01:22:32.052Z,0
2017-03-30T01:23:40.810Z,0
2017-03-30T01:24:49.900Z,0
2017-03-30T01:25:59.573Z,0
2017-03-30T01:27:08.333Z,0
2017-03-30T01:28:17.094Z,0
2017-03-30T01:29:25.856Z,0
2017-03-30T01:30:34.617Z,0
2017-03-30T01:31:43.629Z,0
2017-03-30T01:32:52.340Z,0
2017-03-30T01:34:01.126Z,0
2017-03-30T01:35:09.911Z,0
2017-03-30T01:36:18.975Z,0
2017-03-30T01:37:27.732Z,0
2017-03-30T01:38:36.830Z,0
2017-03-30T01:39:45.591Z,0
2017-03-30T01:40:54.358Z,0
2017-03-30T01:42:03.124Z,0
2017-03-30T01:43:11.876Z,0
2017-03-30T01:44:20.642Z,0
2017-03-30T01:45:29.708Z,0
2017-03-30T01:46:38.466Z,0
2017-03-30T01:47:47.529Z,0
2017-03-30T01:48:56.284Z,0
2017-03-30T01:50:05.355Z,0
2017-03-30T01:51:14.422Z,0
2017-03-30T01:52:23.191Z,0
2017-03-30T01:53:32.152Z,0
2017-03-30T01:54:41.172Z,0
2017-03-30T01:55:49.909Z,0
2017-03-30T01:56:58.670Z,0
2017-03-30T01:58:08.033Z,0
2017-03-30T01:59:17.095Z,0
2017-03-30T02:00:25.851Z,0
2017-03-30T02:01:34.562Z,0
2017-03-30T02:02:43.318Z,0
2017-03-30T02:03:52.079Z,0
2017-03-30T02:05:00.823Z,0
2017-03-30T02:06:09.548Z,0
2017-03-30T02:07:18.598Z,0
2017-03-30T02:08:27.655Z,0
2017-03-30T02:09:36.719Z,0
2017-03-30T02:10:45.486Z,0
2017-03-30T02:11:54.268Z,0
2017-03-30T02:13:03.032Z,0
2017-03-30T02:14:11.736Z,0
2017-03-30T02:15:20.483Z,0
2017-03-30T02:16:36.509Z,0
2017-03-30T02:17:45.263Z,0
2017-03-30T02:18:54.330Z,0
2017-03-30T02:20:03.039Z,0
2017-03-30T02:21:11.795Z,0
2017-03-30T02:22:20.558Z,0
2017-03-30T02:23:29.317Z,0
2017-03-30T02:24:38.380Z,0
2017-03-30T02:25:47.851Z,0
2017-03-30T02:26:56.865Z,0
2017-03-30T02:28:05.915Z,0
2017-03-30T02:29:14.628Z,0
2017-03-30T02:30:23.376Z,0
2017-03-30T02:31:32.749Z,0
2017-03-30T02:32:41.815Z,0
2017-03-30T02:33:50.827Z,0
2017-03-30T02:35:00.128Z,0
2017-03-30T02:36:09.473Z,0
2017-03-30T02:37:18.492Z,0
2017-03-30T02:38:27.790Z,0
2017-03-30T02:39:36.846Z,0
2017-03-30T02:40:45.906Z,0
2017-03-30T02:41:55.280Z,0
2017-03-30T02:43:04.354Z,0
2017-03-30T02:44:13.418Z,0
2017-03-30T02:45:22.491Z,0
2017-03-30T02:46:31.860Z,0
2017-03-30T02:47:40.628Z,0
2017-03-30T02:48:49.379Z,0
2017-03-30T02:49:58.387Z,0
2017-03-30T02:51:07.142Z,0
2017-03-30T02:52:16.203Z,0
2017-03-30T02:53:24.972Z,0
2017-03-30T02:54:34.037Z,0
2017-03-30T02:55:42.792Z,0
2017-03-30T02:56:51.842Z,0
2017-03-30T02:58:01.104Z,0
2017-03-30T02:59:10.167Z,0
2017-03-30T03:00:18.931Z,0
2017-03-30T03:01:27.689Z,0
2017-03-30T03:02:36.757Z,0
2017-03-30T03:03:46.030Z,0
2017-03-30T03:04:55.081Z,0
2017-03-30T03:06:03.832Z,0
2017-03-30T03:07:12.537Z,0
2017-03-30T03:08:21.581Z,0
2017-03-30T03:09:30.339Z,0
2017-03-30T03:10:39.074Z,0
2017-03-30T03:11:47.830Z,0
2017-03-30T03:12:56.892Z,0
2017-03-30T03:14:05.649Z,0
2017-03-30T03:15:14.405Z,0
2017-03-30T03:16:23.467Z,0
2017-03-30T03:17:32.534Z,0
2017-03-30T03:18:41.241Z,0
2017-03-30T03:19:50.291Z,0
2017-03-30T03:20:59.301Z,0
2017-03-30T03:22:08.359Z,0
2017-03-30T03:23:17.981Z,0
2017-03-30T03:24:26.930Z,0
2017-03-30T03:25:35.699Z,0
2017-03-30T03:26:44.471Z,0
2017-03-30T03:27:53.186Z,0
2017-03-30T03:29:01.891Z,0
2017-03-30T03:30:10.890Z,0
2017-03-30T03:31:19.647Z,0
2017-03-30T03:32:28.706Z,0
2017-03-30T03:33:37.467Z,0
2017-03-30T03:34:46.434Z,0
2017-03-30T03:35:55.151Z,0
2017-03-30T03:37:04.213Z,0
2017-03-30T03:38:13.321Z,0
2017-03-30T03:39:22.334Z,0
2017-03-30T03:40:31.378Z,0
2017-03-30T03:41:40.143Z,0
2017-03-30T03:42:49.208Z,0
2017-03-30T03:43:57.959Z,0
2017-03-30T03:45:07.035Z,0
2017-03-30T03:46:15.823Z,0
2017-03-30T03:47:24.899Z,0
2017-03-30T03:48:33.913Z,0
2017-03-30T03:49:42.981Z,0
2017-03-30T03:50:51.744Z,0
2017-03-30T03:52:00.828Z,0
2017-03-30T03:53:09.595Z,0
2017-03-30T03:54:18.662Z,0
2017-03-30T03:55:27.731Z,0
2017-03-30T03:56:36.497Z,0
2017-03-30T03:57:45.561Z,0
2017-03-30T03:58:54.646Z,0
2017-03-30T04:00:03.372Z,0
2017-03-30T04:01:12.127Z,0
2017-03-30T04:02:21.076Z,0
2017-03-30T04:03:30.442Z,0
2017-03-30T04:04:39.209Z,0
2017-03-30T04:05:47.974Z,0
2017-03-30T04:06:56.737Z,0
2017-03-30T04:08:05.813Z,0
2017-03-30T04:09:14.836Z,0
2017-03-30T04:10:23.601Z,0
2017-03-30T04:11:32.669Z,0
2017-03-30T04:12:41.427Z,0
2017-03-30T04:13:50.189Z,0
2017-03-30T04:14:59.261Z,0
2017-03-30T04:16:09.243Z,0
2017-03-30T04:17:18.009Z,0
2017-03-30T04:18:27.414Z,0
2017-03-30T04:19:36.176Z,0
2017-03-30T04:20:45.247Z,0
2017-03-30T04:21:54.623Z,0
2017-03-30T04:23:03.689Z,0
2017-03-30T04:24:12.969Z,0
2017-03-30T04:25:22.037Z,0
2017-03-30T04:26:31.110Z,0
2017-03-30T04:27:39.872Z,0
2017-03-30T04:28:49.249Z,0
2017-03-30T04:29:57.960Z,0
2017-03-30T04:31:07.027Z,0
2017-03-30T04:32:15.738Z,0
2017-03-30T04:33:25.100Z,0
2017-03-30T04:34:33.863Z,0
2017-03-30T04:35:42.621Z,0
2017-03-30T04:36:51.385Z,0
2017-03-30T04:38:00.778Z,0
2017-03-30T04:39:09.485Z,0
2017-03-30T04:40:18.537Z,0
2017-03-30T04:41:27.301Z,0
2017-03-30T04:42:36.678Z,0
2017-03-30T04:43:45.692Z,0
2017-03-30T04:44:54.746Z,0
2017-03-30T04:46:03.494Z,0
2017-03-30T04:47:12.245Z,0
2017-03-30T04:48:21.004Z,0
2017-03-30T04:49:29.773Z,0
2017-03-30T04:50:38.528Z,0
2017-03-30T04:51:47.953Z,0
2017-03-30T04:52:57.536Z,0
2017-03-30T04:54:06.909Z,0
2017-03-30T04:55:15.676Z,0
2017-03-30T04:56:24.443Z,0
2017-03-30T04:57:33.506Z,4
2017-03-30T04:58:42.214Z,4
2017-03-30T04:59:50.961Z,4
2017-03-30T05:00:59.727Z,4
2017-03-30T05:02:08.802Z,0
2017-03-30T05:03:17.508Z,4
2017-03-30T05:04:26.860Z,4
2017-03-30T05:05:35.579Z,4
2017-03-30T05:06:44.331Z,8
2017-03-30T05:07:53.099Z,4
2017-03-30T05:09:02.779Z,8
2017-03-30T05:10:11.798Z,4
2017-03-30T05:11:20.543Z,8
2017-03-30T05:12:29.314Z,8
2017-03-30T05:13:38.382Z,8
2017-03-30T05:14:47.754Z,12
2017-03-30T05:15:56.465Z,16
2017-03-30T05:17:05.212Z,16
2017-03-30T05:18:14.281Z,20
2017-03-30T05:19:23.045Z,20
2017-03-30T05:20:32.424Z,20
2017-03-30T05:21:41.498Z,24
2017-03-30T05:22:50.771Z,24
2017-03-30T05:23:59.531Z,28
2017-03-30T05:25:08.905Z,28
2017-03-30T05:26:17.666Z,32
2017-03-30T05:27:26.684Z,32
2017-03-30T05:28:35.451Z,36
2017-03-30T05:29:44.426Z,36
2017-03-30T05:30:53.491Z,40
2017-03-30T05:32:02.557Z,44
2017-03-30T05:33:11.330Z,48
2017-03-30T05:34:20.405Z,56
2017-03-30T05:35:29.471Z,60
2017-03-30T05:36:38.227Z,68
2017-03-30T05:37:46.991Z,80
2017-03-30T05:38:56.020Z,92
2017-03-30T05:40:05.070Z,100
2017-03-30T05:41:14.135Z,116
2017-03-30T05:42:23.228Z,120
2017-03-30T05:43:31.939Z,124
2017-03-30T05:44:41.294Z,132
2017-03-30T05:45:50.058Z,144
2017-03-30T05:46:59.121Z,152
2017-03-30T05:48:07.817Z,168
2017-03-30T05:49:16.572Z,176
2017-03-30T05:50:25.334Z,188
2017-03-30T05:51:34.094Z,204
2017-03-30T05:52:42.852Z,220
2017-03-30T05:53:51.627Z,228
2017-03-30T05:55:00.392Z,232
2017-03-30T05:56:09.169Z,244
2017-03-30T05:57:18.540Z,256
2017-03-30T05:58:27.300Z,268
2017-03-30T05:59:36.367Z,280
2017-03-30T06:00:45.137Z,304
2017-03-30T06:01:54.211Z,336
2017-03-30T06:03:03.276Z,352
2017-03-30T06:04:12.045Z,572
2017-03-30T06:05:20.820Z,504
2017-03-30T06:06:29.590Z,380
2017-03-30T06:07:38.499Z,380
2017-03-30T06:08:47.253Z,388
2017-03-30T06:09:56.021Z,380
2017-03-30T06:11:05.116Z,396
2017-03-30T06:12:14.183Z,488
2017-03-30T06:13:22.892Z,396
2017-03-30T06:14:32.148Z,508
2017-03-30T06:15:40.888Z,400
2017-03-30T06:16:50.264Z,420
2017-03-30T06:17:58.972Z,436
2017-03-30T06:19:07.749Z,448
2017-03-30T06:20:16.517Z,592
2017-03-30T06:21:25.528Z,848
2017-03-30T06:22:34.278Z,872
2017-03-30T06:23:43.042Z,892
2017-03-30T06:24:51.796Z,916
2017-03-30T06:26:00.546Z,892
2017-03-30T06:27:09.292Z,944
2017-03-30T06:28:18.304Z,952
2017-03-30T06:29:27.346Z,912
2017-03-30T06:30:36.417Z,1008
2017-03-30T06:31:45.478Z,1028
2017-03-30T06:32:54.542Z,1056
2017-03-30T06:34:03.315Z,1076
2017-03-30T06:35:12.390Z,1096
2017-03-30T06:36:21.455Z,1112
2017-03-30T06:37:30.861Z,1104
2017-03-30T06:38:39.622Z,1152
2017-03-30T06:39:48.631Z,1172
2017-03-30T06:40:57.357Z,1212
2017-03-30T06:42:06.139Z,1236
2017-03-30T06:43:14.907Z,1256
2017-03-30T06:44:23.669Z,1312
2017-03-30T06:45:32.437Z,1328
2017-03-30T06:46:41.197Z,1400
2017-03-30T06:47:50.456Z,1484
2017-03-30T06:48:59.534Z,1512
2017-03-30T06:50:08.601Z,1096
2017-03-30T06:51:17.622Z,1532
2017-03-30T06:52:26.971Z,1580
2017-03-30T06:53:35.729Z,1636
2017-03-30T06:54:45.052Z,1688
2017-03-30T06:55:53.805Z,1728
2017-03-30T06:57:02.815Z,972
2017-03-30T06:58:11.810Z,1380
2017-03-30T06:59:20.550Z,1936
2017-03-30T07:00:29.612Z,1704
2017-03-30T07:01:38.314Z,1692
2017-03-30T07:02:47.018Z,2172
2017-03-30T07:03:55.782Z,2200
2017-03-30T07:05:04.849Z,1696
2017-03-30T07:06:13.610Z,1616
2017-03-30T07:07:22.375Z,1504
2017-03-30T07:08:31.138Z,1700
2017-03-30T07:09:40.105Z,1968
2017-03-30T07:10:49.486Z,2608
2017-03-30T07:11:58.210Z,3888
2017-03-30T07:13:06.961Z,2360
2017-03-30T07:14:15.729Z,2640
2017-03-30T07:15:24.499Z,3584
2017-03-30T07:16:33.264Z,3600
2017-03-30T07:17:42.026Z,2248
2017-03-30T07:18:50.792Z,3136
2017-03-30T07:19:59.819Z,3788
2017-03-30T07:21:08.881Z,4600
2017-03-30T07:22:17.644Z,4168
2017-03-30T07:23:26.713Z,4536
2017-03-30T07:24:35.482Z,3720
2017-03-30T07:25:45.002Z,4160
2017-03-30T07:26:53.737Z,4680
2017-03-30T07:28:03.107Z,4892
2017-03-30T07:29:12.130Z,4260
2017-03-30T07:30:20.919Z,4100
2017-03-30T07:31:29.684Z,2864
2017-03-30T07:32:38.450Z,2672
2017-03-30T07:33:47.262Z,4652
2017-03-30T07:34:56.070Z,2076
2017-03-30T07:36:05.118Z,4052
2017-03-30T07:37:13.877Z,2364
2017-03-30T07:38:22.647Z,3824
2017-03-30T07:39:32.026Z,3712
2017-03-30T07:40:40.733Z,3664
2017-03-30T07:41:49.433Z,3512
2017-03-30T07:42:58.491Z,3312
2017-03-30T07:44:07.565Z,3600
2017-03-30T07:45:16.643Z,3600
2017-03-30T07:46:25.419Z,3628
2017-03-30T07:47:34.481Z,3564
2017-03-30T07:48:43.547Z,3548
2017-03-30T07:49:52.313Z,3564
2017-03-30T07:51:01.386Z,3596
2017-03-30T07:52:10.153Z,3660
2017-03-30T07:53:18.925Z,3696
2017-03-30T07:54:28.001Z,3748
2017-03-30T07:55:37.001Z,3804
2017-03-30T07:56:45.744Z,4048
2017-03-30T07:57:54.786Z,4252
2017-03-30T07:59:03.538Z,3412
2017-03-30T08:00:12.617Z,3468
2017-03-30T08:01:21.686Z,3148
2017-03-30T08:02:31.053Z,3932
2017-03-30T08:03:39.830Z,3624
2017-03-30T08:04:48.597Z,3516
2017-03-30T08:05:57.357Z,3180
2017-03-30T08:07:06.922Z,2804
2017-03-30T08:08:16.009Z,3264
2017-03-30T08:09:24.773Z,3464
2017-03-30T08:10:33.840Z,2824
2017-03-30T08:11:42.905Z,3096
2017-03-30T08:12:51.668Z,4060
2017-03-30T08:14:00.748Z,2472
2017-03-30T08:15:09.811Z,2868
2017-03-30T08:16:19.184Z,3080
2017-03-30T08:17:27.943Z,3776
2017-03-30T08:18:37.007Z,3300
2017-03-30T08:19:45.825Z,3108
2017-03-30T08:20:54.588Z,4916
2017-03-30T08:22:03.869Z,3072
2017-03-30T08:23:12.939Z,2624
2017-03-30T08:24:21.706Z,2484
2017-03-30T08:25:30.469Z,2532
2017-03-30T08:26:39.233Z,4388
2017-03-30T08:27:48.610Z,4116
2017-03-30T08:28:57.692Z,4564
2017-03-30T08:30:06.463Z,4376
2017-03-30T08:31:15.520Z,3700
2017-03-30T08:32:24.900Z,4340
2017-03-30T08:33:33.967Z,3812
2017-03-30T08:34:42.682Z,4208
2017-03-30T08:35:51.440Z,4488
2017-03-30T08:37:00.508Z,4444
2017-03-30T08:38:09.214Z,2484
2017-03-30T08:39:17.962Z,2168
2017-03-30T08:40:26.726Z,2032
2017-03-30T08:41:35.491Z,2136
2017-03-30T08:42:44.870Z,2032
2017-03-30T08:43:53.579Z,2164
2017-03-30T08:45:02.947Z,2224
2017-03-30T08:46:11.713Z,2220
2017-03-30T08:47:20.505Z,2188
2017-03-30T08:48:29.290Z,2280
2017-03-30T08:49:38.361Z,2564
2017-03-30T08:50:47.433Z,2284
2017-03-30T08:51:56.502Z,1916
2017-03-30T08:53:05.568Z,1960
2017-03-30T08:54:14.625Z,2604
2017-03-30T08:55:23.693Z,3060
2017-03-30T08:56:32.762Z,3676
2017-03-30T08:57:41.524Z,3992
2017-03-30T08:58:50.644Z,4076
2017-03-30T08:59:59.415Z,4288
2017-03-30T09:01:08.378Z,4244
2017-03-30T09:02:17.087Z,4224
2017-03-30T09:03:26.139Z,5068
2017-03-30T09:04:35.213Z,7048
2017-03-30T09:05:44.279Z,7696
2017-03-30T09:06:53.652Z,6192
2017-03-30T09:08:03.179Z,8012
2017-03-30T09:09:12.244Z,16476
2017-03-30T09:10:21.019Z,15044
2017-03-30T09:11:29.785Z,50272
2017-03-30T09:12:38.558Z,18432
2017-03-30T09:13:47.276Z,45888
2017-03-30T09:14:56.332Z,45568
2017-03-30T09:16:05.355Z,28704
2017-03-30T09:17:14.086Z,8836
2017-03-30T09:18:22.791Z,10380
2017-03-30T09:19:31.540Z,31616
2017-03-30T09:20:40.612Z,43872
2017-03-30T09:21:49.680Z,44128
2017-03-30T09:22:59.054Z,29664
2017-03-30T09:24:08.425Z,43712
2017-03-30T09:25:17.191Z,47168
2017-03-30T09:26:25.961Z,41792
2017-03-30T09:27:35.038Z,44768
2017-03-30T09:28:44.110Z,44064
2017-03-30T09:29:53.225Z,45984
2017-03-30T09:31:01.934Z,46624
2017-03-30T09:32:11.306Z,48064
2017-03-30T09:33:20.016Z,47680
2017-03-30T09:34:28.760Z,48288
2017-03-30T09:35:37.832Z,48384
2017-03-30T09:36:46.800Z,50272
2017-03-30T09:37:56.175Z,51552
2017-03-30T09:39:05.250Z,50784
2017-03-30T09:40:14.317Z,48544
2017-03-30T09:41:23.390Z,47360
2017-03-30T09:42:32.156Z,46656
2017-03-30T09:43:40.870Z,46432
2017-03-30T09:44:50.184Z,45888
2017-03-30T09:45:58.951Z,44736
2017-03-30T09:47:08.033Z,44544
2017-03-30T09:48:16.774Z,44000
2017-03-30T09:49:25.534Z,46880
2017-03-30T09:50:34.615Z,45888
2017-03-30T09:51:43.334Z,43872
2017-03-30T09:52:52.334Z,41920
2017-03-30T09:54:01.384Z,40736
2017-03-30T09:55:10.156Z,42016
2017-03-30T09:56:18.868Z,45120
2017-03-30T09:57:27.600Z,46016
2017-03-30T09:58:36.658Z,44768
2017-03-30T09:59:46.441Z,44576
2017-03-30T10:00:55.215Z,45472
2017-03-30T10:02:04.225Z,45184
2017-03-30T10:03:13.290Z,36736
2017-03-30T10:04:22.357Z,43104
2017-03-30T10:05:31.386Z,44288
2017-03-30T10:06:40.130Z,42592
2017-03-30T10:07:49.486Z,41888
2017-03-30T10:08:58.554Z,41536
2017-03-30T10:10:07.329Z,41344
2017-03-30T10:11:16.417Z,40928
2017-03-30T10:12:25.183Z,41824
2017-03-30T10:13:33.954Z,40384
2017-03-30T10:14:42.666Z,40352
2017-03-30T10:15:51.423Z,41056
2017-03-30T10:17:00.447Z,39232
2017-03-30T10:18:09.770Z,39328
2017-03-30T10:19:18.527Z,40384
2017-03-30T10:20:27.603Z,40448
2017-03-30T10:21:36.361Z,38272
2017-03-30T10:22:45.462Z,37408
2017-03-30T10:23:54.227Z,36640
2017-03-30T10:25:03.002Z,34560
2017-03-30T10:26:11.754Z,33536
2017-03-30T10:27:20.828Z,34880
2017-03-30T10:28:29.590Z,35456
2017-03-30T10:29:38.658Z,36256
2017-03-30T10:30:48.035Z,37280
2017-03-30T10:31:57.720Z,36672
2017-03-30T10:33:06.483Z,39360
2017-03-30T10:34:15.250Z,39168
2017-03-30T10:35:24.022Z,37792
2017-03-30T10:36:33.310Z,37440
2017-03-30T10:37:42.023Z,38496
2017-03-30T10:38:51.125Z,38176
2017-03-30T10:40:00.518Z,40096
2017-03-30T10:41:09.547Z,40864
2017-03-30T10:42:18.552Z,41632
2017-03-30T10:43:27.329Z,44288
2017-03-30T10:44:36.396Z,45024
2017-03-30T10:45:45.160Z,47040
2017-03-30T10:46:53.873Z,46272
2017-03-30T10:48:02.953Z,47264
2017-03-30T10:49:11.669Z,47232
2017-03-30T10:50:20.731Z,48000
2017-03-30T10:51:29.644Z,47424
2017-03-30T10:52:38.650Z,47488
2017-03-30T10:53:47.404Z,46560
2017-03-30T10:54:56.472Z,46272
2017-03-30T10:56:05.193Z,47808
2017-03-30T10:57:14.207Z,49600
2017-03-30T10:58:22.956Z,46976
2017-03-30T10:59:31.734Z,47648
2017-03-30T11:00:40.768Z,48000
2017-03-30T11:01:49.725Z,46400
2017-03-30T11:02:58.492Z,47584
2017-03-30T11:04:07.261Z,52768
2017-03-30T11:05:16.021Z,52832
2017-03-30T11:06:25.089Z,51360
2017-03-30T11:07:33.862Z,53184
2017-03-30T11:08:42.934Z,50016
2017-03-30T11:09:51.911Z,51776
2017-03-30T11:11:00.685Z,49472
2017-03-30T11:12:09.459Z,47168
2017-03-30T11:13:18.534Z,50144
2017-03-30T11:14:27.300Z,52256
2017-03-30T11:15:36.710Z,46944
2017-03-30T11:16:46.090Z,51136
2017-03-30T11:17:55.114Z,53728
2017-03-30T11:19:03.859Z,54080
2017-03-30T11:20:12.931Z,52480
2017-03-30T11:21:21.709Z,50688
2017-03-30T11:22:30.480Z,54272
2017-03-30T11:23:39.548Z,56128
2017-03-30T11:24:48.627Z,58240
2017-03-30T11:25:57.397Z,58528
2017-03-30T11:27:06.112Z,56128
2017-03-30T11:28:14.864Z,55456
2017-03-30T11:29:23.643Z,56800
2017-03-30T11:30:32.358Z,55840
2017-03-30T11:31:41.414Z,53216
2017-03-30T11:32:50.677Z,50304
2017-03-30T11:33:59.460Z,49568
2017-03-30T11:35:08.477Z,47072
2017-03-30T11:36:17.242Z,43552
2017-03-30T11:37:26.335Z,48096
2017-03-30T11:38:35.116Z,44608
2017-03-30T11:39:43.896Z,42720
2017-03-30T11:40:52.631Z,41184
2017-03-30T11:42:01.351Z,33600
2017-03-30T11:43:10.254Z,31648
2017-03-30T11:44:19.318Z,28640
2017-03-30T11:45:28.381Z,27296
2017-03-30T11:46:37.168Z,23872
2017-03-30T11:47:45.939Z,20416
2017-03-30T11:48:54.703Z,17376
2017-03-30T11:50:03.443Z,16256
2017-03-30T11:51:12.198Z,15712
2017-03-30T11:52:20.928Z,14452
2017-03-30T11:53:29.693Z,13376
2017-03-30T11:54:38.440Z,12616
2017-03-30T11:55:47.498Z,11900
2017-03-30T11:56:56.268Z,11632
2017-03-30T11:58:05.343Z,11836
2017-03-30T11:59:14.361Z,11756
2017-03-30T12:00:23.129Z,11196
2017-03-30T12:01:31.899Z,10392
2017-03-30T12:02:41.077Z,10464
2017-03-30T12:03:50.992Z,9524
2017-03-30T12:05:00.411Z,5828
2017-03-30T12:06:09.173Z,5444
2017-03-30T12:07:18.249Z,5324
2017-03-30T12:08:27.021Z,4852
2017-03-30T12:09:36.097Z,3804
2017-03-30T12:10:45.476Z,3212
2017-03-30T12:11:54.604Z,3096
2017-03-30T12:13:03.374Z,3020
2017-03-30T12:14:12.597Z,2912
2017-03-30T12:15:21.662Z,1948
2017-03-30T12:16:30.437Z,1984
2017-03-30T12:17:39.209Z,3744
2017-03-30T12:18:48.282Z,3228
2017-03-30T12:19:57.052Z,2716
2017-03-30T12:21:05.826Z,3700
2017-03-30T12:22:14.903Z,3140
2017-03-30T12:23:23.678Z,3588
2017-03-30T12:24:32.691Z,3216
2017-03-30T12:25:41.760Z,2780
2017-03-30T12:26:50.587Z,2524
2017-03-30T12:27:59.606Z,2524
2017-03-30T12:29:08.363Z,2536
2017-03-30T12:30:17.458Z,1884
2017-03-30T12:31:26.229Z,1596
2017-03-30T12:32:35.011Z,1232
2017-03-30T12:33:43.777Z,1280
2017-03-30T12:34:52.642Z,2228
2017-03-30T12:36:01.952Z,2644
2017-03-30T12:37:10.705Z,2716
2017-03-30T12:38:19.476Z,2988
2017-03-30T12:39:28.573Z,2688
2017-03-30T12:40:37.341Z,1588
2017-03-30T12:41:46.116Z,2660
2017-03-30T12:42:55.162Z,2172
2017-03-30T12:44:04.228Z,1796
2017-03-30T12:45:13.242Z,1452
2017-03-30T12:46:22.296Z,2144
2017-03-30T12:47:31.066Z,2116
2017-03-30T12:48:39.836Z,2016
2017-03-30T12:49:48.599Z,1980
2017-03-30T12:50:57.343Z,2040
2017-03-30T12:52:06.412Z,1428
2017-03-30T12:53:15.430Z,1480
2017-03-30T12:54:24.188Z,1532
2017-03-30T12:55:32.962Z,2088
2017-03-30T12:56:41.681Z,2464
2017-03-30T12:57:50.446Z,2196
2017-03-30T12:58:59.208Z,2164
2017-03-30T13:00:07.980Z,2180
2017-03-30T13:01:16.741Z,2108
2017-03-30T13:02:25.507Z,2176
2017-03-30T13:03:34.286Z,2172
2017-03-30T13:04:43.363Z,2300
2017-03-30T13:05:52.435Z,2436
2017-03-30T13:07:01.207Z,2464
2017-03-30T13:08:10.586Z,2464
2017-03-30T13:09:19.355Z,2376
2017-03-30T13:10:28.126Z,2236
2017-03-30T13:11:36.895Z,2132
2017-03-30T13:12:45.607Z,1868
2017-03-30T13:13:54.363Z,2140
2017-03-30T13:15:03.125Z,1564
2017-03-30T13:16:11.889Z,1332
2017-03-30T13:17:20.666Z,964
2017-03-30T13:18:29.735Z,1052
2017-03-30T13:19:38.802Z,1344
2017-03-30T13:20:47.818Z,1900
2017-03-30T13:21:57.118Z,2512
2017-03-30T13:23:06.167Z,2464
2017-03-30T13:24:14.931Z,2332
2017-03-30T13:25:24.309Z,2176
2017-03-30T13:26:33.077Z,2016
2017-03-30T13:27:41.841Z,1800
2017-03-30T13:28:50.563Z,1140
2017-03-30T13:29:59.306Z,1128
2017-03-30T13:31:08.073Z,1196
2017-03-30T13:32:17.146Z,1420
2017-03-30T13:33:25.913Z,1740
2017-03-30T13:34:34.675Z,1664
2017-03-30T13:35:44.254Z,1112
2017-03-30T13:36:52.974Z,1724
2017-03-30T13:38:01.735Z,1884
2017-03-30T13:39:10.508Z,1940
2017-03-30T13:40:19.522Z,1760
2017-03-30T13:41:28.215Z,1820
2017-03-30T13:42:37.289Z,1852
2017-03-30T13:43:46.050Z,1868
2017-03-30T13:44:55.113Z,1976
2017-03-30T13:46:03.878Z,1868
2017-03-30T13:47:13.261Z,1652
2017-03-30T13:48:22.025Z,1564
2017-03-30T13:49:30.792Z,1376
2017-03-30T13:50:39.548Z,1344
2017-03-30T13:51:48.310Z,1360
2017-03-30T13:52:57.365Z,1552
2017-03-30T13:54:06.134Z,1660
2017-03-30T13:55:15.214Z,1692
2017-03-30T13:56:23.978Z,1744
2017-03-30T13:57:32.746Z,1476
2017-03-30T13:58:41.452Z,1128
2017-03-30T13:59:50.803Z,948
2017-03-30T14:00:59.549Z,880
2017-03-30T14:02:08.515Z,1068
2017-03-30T14:03:17.281Z,1208
2017-03-30T14:04:26.229Z,1268
2017-03-30T14:05:34.991Z,1220
2017-03-30T14:06:43.730Z,1216
2017-03-30T14:07:52.470Z,1264
2017-03-30T14:09:01.241Z,1344
2017-03-30T14:10:09.997Z,1572
2017-03-30T14:11:18.715Z,1492
2017-03-30T14:12:27.972Z,1540
2017-03-30T14:13:36.736Z,1276
2017-03-30T14:14:45.449Z,1212
2017-03-30T14:15:54.420Z,1192
2017-03-30T14:17:03.184Z,1092
2017-03-30T14:18:11.942Z,896
2017-03-30T14:19:20.710Z,768
2017-03-30T14:20:29.477Z,744
2017-03-30T14:21:38.567Z,772
2017-03-30T14:22:47.337Z,968
2017-03-30T14:23:56.103Z,976
2017-03-30T14:25:04.873Z,788
2017-03-30T14:26:13.586Z,832
2017-03-30T14:27:22.292Z,956
2017-03-30T14:28:31.356Z,968
2017-03-30T14:29:40.365Z,1016
2017-03-30T14:30:49.318Z,984
2017-03-30T14:31:58.027Z,1024
2017-03-30T14:33:06.776Z,1140
2017-03-30T14:34:15.540Z,1220
2017-03-30T14:35:24.301Z,1288
2017-03-30T14:36:33.369Z,1420
2017-03-30T14:37:42.145Z,1484
2017-03-30T14:38:51.598Z,1444
2017-03-30T14:40:00.967Z,1360
2017-03-30T14:41:09.726Z,1052
2017-03-30T14:42:18.487Z,912
2017-03-30T14:43:27.251Z,848
2017-03-30T14:44:36.543Z,860
2017-03-30T14:45:45.949Z,1008
2017-03-30T14:46:55.017Z,1024
2017-03-30T14:48:03.745Z,1044
2017-03-30T14:49:12.498Z,1048
2017-03-30T14:50:21.258Z,1016
2017-03-30T14:51:30.028Z,956
2017-03-30T14:52:39.097Z,928
2017-03-30T14:53:47.862Z,864
2017-03-30T14:54:57.243Z,804
2017-03-30T14:56:05.951Z,776
2017-03-30T14:57:14.696Z,772
2017-03-30T14:58:23.454Z,804
2017-03-30T14:59:32.540Z,812
2017-03-30T15:00:41.309Z,840
2017-03-30T15:01:50.072Z,856
2017-03-30T15:02:59.151Z,860
2017-03-30T15:04:07.921Z,840
2017-03-30T15:05:16.983Z,828
2017-03-30T15:06:26.026Z,800
2017-03-30T15:07:34.792Z,808
2017-03-30T15:08:44.475Z,816
2017-03-30T15:09:54.205Z,716
2017-03-30T15:11:02.973Z,748
2017-03-30T15:12:11.731Z,868
2017-03-30T15:13:20.490Z,864
2017-03-30T15:14:29.247Z,944
2017-03-30T15:15:38.013Z,944
2017-03-30T15:16:46.772Z,920
2017-03-30T15:17:55.836Z,924
2017-03-30T15:19:04.604Z,924
2017-03-30T15:20:13.368Z,868
2017-03-30T15:21:22.133Z,780
2017-03-30T15:22:30.895Z,672
2017-03-30T15:23:39.659Z,584
2017-03-30T15:24:48.374Z,608
2017-03-30T15:25:57.674Z,616
2017-03-30T15:27:06.422Z,588
2017-03-30T15:28:15.186Z,584
2017-03-30T15:29:24.097Z,600
2017-03-30T15:30:33.148Z,600
2017-03-30T15:31:42.220Z,596
2017-03-30T15:32:50.935Z,596
2017-03-30T15:33:59.678Z,588
2017-03-30T15:35:08.732Z,576
2017-03-30T15:36:17.440Z,572
2017-03-30T15:37:26.183Z,568
2017-03-30T15:38:35.246Z,564
2017-03-30T15:39:44.006Z,552
2017-03-30T15:40:53.077Z,556
2017-03-30T15:42:01.848Z,568
2017-03-30T15:43:10.919Z,600
2017-03-30T15:44:19.689Z,636
2017-03-30T15:45:28.764Z,680
2017-03-30T15:46:37.533Z,684
2017-03-30T15:47:46.293Z,668
2017-03-30T15:48:55.050Z,668
2017-03-30T15:50:03.809Z,704